Time;durP1;ratioP1;P1;durP2;ratioP2;P2;SDS_P1;SDS_P2;PMS_P1;PMS_P2;Temp;Humidity;BMP_temperature;BMP_pressure;BME280_temperature;BME280_humidity;BME280_pressure;Samples;Min_cycle;Max_cycle;Signal;HPM_P1;HPM_P2
2021/11/06 00:01:11;;;;;;;12.45;5.95;;;;;;;;;;5054121;28;20091;-68
2021/11/06 00:03:37;;;;;;;10.80;4.85;;;;;;;;;;5047139;28;20049;-68
2021/11/06 00:06:04;;;;;;;9.88;4.88;;;;;;;;;;5053553;28;20060;-68
2021/11/06 00:08:30;;;;;;;17.02;5.78;;;;;;;;;;5042008;28;20044;-67
2021/11/06 00:10:57;;;;;;;8.95;5.30;;;;;;;;;;5052661;28;20051;-67
2021/11/06 00:13:23;;;;;;;11.07;5.38;;;;;;;;;;5054044;28;20053;-67
2021/11/06 00:15:49;;;;;;;13.32;5.95;;;;;;;;;;5047279;28;20053;-68
2021/11/06 00:18:16;;;;;;;13.48;5.90;;;;;;;;;;5053294;28;20053;-68
2021/11/06 00:20:42;;;;;;;11.40;5.25;;;;;;;;;;5042963;28;20049;-68
2021/11/06 00:23:08;;;;;;;15.02;5.90;;;;;;;;;;5049284;28;20051;-68
2021/11/06 00:25:35;;;;;;;13.88;5.45;;;;;;;;;;5047688;28;20052;-68
2021/11/06 00:28:02;;;;;;;17.15;6.28;;;;;;;;;;5053836;28;20045;-68
2021/11/06 00:30:28;;;;;;;15.32;6.10;;;;;;;;;;5053112;28;20053;-68
2021/11/06 00:32:55;;;;;;;13.30;6.32;;;;;;;;;;5046875;28;20049;-68
2021/11/06 00:35:22;;;;;;;13.27;6.65;;;;;;;;;;5047770;28;20052;-68
2021/11/06 00:37:52;;;;;;;11.98;5.90;;;;;;;;;;5044117;28;20053;-68
2021/11/06 00:40:19;;;;;;;16.35;6.45;;;;;;;;;;5053758;28;20847;-68
2021/11/06 00:42:45;;;;;;;13.02;6.40;;;;;;;;;;5047290;28;20060;-68
2021/11/06 00:45:12;;;;;;;14.02;6.63;;;;;;;;;;5053159;28;20437;-68
2021/11/06 00:47:39;;;;;;;14.77;6.90;;;;;;;;;;5048630;28;20486;-68
2021/11/06 00:50:07;;;;;;;15.25;7.03;;;;;;;;;;5042371;28;20517;-68
2021/11/06 00:52:33;;;;;;;15.35;7.85;;;;;;;;;;5053056;28;20087;-68
2021/11/06 00:55:00;;;;;;;18.77;7.72;;;;;;;;;;5047124;28;20414;-68
2021/11/06 00:57:27;;;;;;;13.00;7.35;;;;;;;;;;5052199;28;20044;-68
2021/11/06 00:59:53;;;;;;;18.05;7.68;;;;;;;;;;5045609;28;20060;-68
2021/11/06 01:02:20;;;;;;;15.63;8.02;;;;;;;;;;5047689;28;20049;-68
2021/11/06 01:04:46;;;;;;;19.17;8.25;;;;;;;;;;5048296;28;20083;-68
2021/11/06 01:07:12;;;;;;;14.85;8.65;;;;;;;;;;5047129;28;20051;-67
2021/11/06 01:09:39;;;;;;;16.27;8.68;;;;;;;;;;5052623;28;20057;-67
2021/11/06 01:12:06;;;;;;;14.93;8.63;;;;;;;;;;5047113;28;20053;-67
2021/11/06 01:14:32;;;;;;;15.82;8.73;;;;;;;;;;5052089;28;20049;-68
2021/11/06 01:16:58;;;;;;;17.00;8.40;;;;;;;;;;5038135;28;20393;-68
2021/11/06 01:19:25;;;;;;;22.10;9.23;;;;;;;;;;5052258;28;20053;-68
2021/11/06 01:21:52;;;;;;;13.75;8.75;;;;;;;;;;5050140;28;20160;-68
2021/11/06 01:24:18;;;;;;;17.85;8.45;;;;;;;;;;5048841;28;20048;-68
2021/11/06 01:26:44;;;;;;;17.77;9.68;;;;;;;;;;5052492;28;20063;-68
2021/11/06 01:29:11;;;;;;;17.85;9.80;;;;;;;;;;5042568;28;20091;-68
2021/11/06 01:31:37;;;;;;;17.73;9.55;;;;;;;;;;5047734;28;20060;-68
2021/11/06 01:34:03;;;;;;;16.23;9.57;;;;;;;;;;5046126;28;20053;-68
2021/11/06 01:36:30;;;;;;;17.20;9.25;;;;;;;;;;5052764;28;20049;-68
2021/11/06 01:38:56;;;;;;;21.77;10.23;;;;;;;;;;5047275;28;20048;-68
2021/11/06 01:41:22;;;;;;;15.30;9.98;;;;;;;;;;5052061;28;20056;-68
2021/11/06 01:43:54;;;;;;;17.50;10.25;;;;;;;;;;5044188;28;20067;-67
2021/11/06 01:46:20;;;;;;;22.20;10.20;;;;;;;;;;5044373;28;20048;-67
2021/11/06 01:48:47;;;;;;;16.17;9.18;;;;;;;;;;5051708;28;20470;-67
2021/11/06 01:51:13;;;;;;;24.75;11.23;;;;;;;;;;5045079;28;20048;-68
2021/11/06 01:53:40;;;;;;;19.88;10.45;;;;;;;;;;5051259;28;20490;-68
2021/11/06 01:56:06;;;;;;;22.88;10.98;;;;;;;;;;5039510;28;20055;-68
2021/11/06 01:58:33;;;;;;;20.50;9.82;;;;;;;;;;5026066;28;20387;-68
2021/11/06 02:01:00;;;;;;;20.67;10.27;;;;;;;;;;5037891;28;20045;-68
2021/11/06 02:03:26;;;;;;;18.10;9.70;;;;;;;;;;5044703;28;20738;-68
2021/11/06 02:05:53;;;;;;;21.90;10.55;;;;;;;;;;5050265;28;20049;-68
2021/11/06 02:08:19;;;;;;;22.50;10.73;;;;;;;;;;5044131;28;20056;-68
2021/11/06 02:10:46;;;;;;;24.58;10.75;;;;;;;;;;5043787;28;20049;-68
2021/11/06 02:13:13;;;;;;;18.38;10.52;;;;;;;;;;5041945;28;20053;-68
2021/11/06 02:15:39;;;;;;;23.20;10.60;;;;;;;;;;5050042;28;20395;-68
2021/11/06 02:18:06;;;;;;;21.52;10.15;;;;;;;;;;5050771;28;20056;-69
2021/11/06 02:20:32;;;;;;;26.38;10.82;;;;;;;;;;5044491;28;20048;-68
2021/11/06 02:22:59;;;;;;;24.48;10.98;;;;;;;;;;5046773;28;20052;-68
2021/11/06 02:25:25;;;;;;;25.08;11.23;;;;;;;;;;5039336;28;20045;-68
2021/11/06 02:28:11;;;;;;;30.80;12.25;;;;;;;;;;5050178;28;20410;-68
2021/11/06 02:30:38;;;;;;;27.73;12.27;;;;;;;;;;5043825;28;20482;-68
2021/11/06 02:33:05;;;;;;;28.35;11.77;;;;;;;;;;5050370;28;20128;-68
2021/11/06 02:35:31;;;;;;;26.10;12.35;;;;;;;;;;5049784;28;20067;-67
2021/11/06 02:37:57;;;;;;;28.80;12.57;;;;;;;;;;5039572;28;20049;-68
2021/11/06 02:40:24;;;;;;;28.02;12.07;;;;;;;;;;5047264;28;20045;-68
2021/11/06 02:42:50;;;;;;;37.60;13.07;;;;;;;;;;5044378;28;20048;-68
2021/11/06 02:45:17;;;;;;;32.45;12.85;;;;;;;;;;5051126;28;20059;-68
2021/11/06 02:47:43;;;;;;;36.78;13.20;;;;;;;;;;5044226;28;20053;-68
2021/11/06 02:50:09;;;;;;;35.00;13.38;;;;;;;;;;5048249;28;20410;-68
2021/11/06 02:52:35;;;;;;;35.80;12.55;;;;;;;;;;5043569;28;20060;-68
2021/11/06 02:55:02;;;;;;;36.65;14.57;;;;;;;;;;5050102;28;20052;-68
2021/11/06 02:57:28;;;;;;;35.00;12.23;;;;;;;;;;5050726;28;20057;-68
2021/11/06 02:59:55;;;;;;;33.92;13.70;;;;;;;;;;5043645;28;20044;-68
2021/11/06 03:02:21;;;;;;;33.30;13.07;;;;;;;;;;5043274;28;20061;-68
2021/11/06 03:04:47;;;;;;;43.20;14.02;;;;;;;;;;5040547;28;20053;-68
2021/11/06 03:07:14;;;;;;;44.25;15.57;;;;;;;;;;5049761;28;20055;-68
2021/11/06 03:09:41;;;;;;;43.20;13.05;;;;;;;;;;5043632;28;20041;-68
2021/11/06 03:12:09;;;;;;;43.22;14.10;;;;;;;;;;5047867;28;20060;-68
2021/11/06 03:14:39;;;;;;;43.83;15.57;;;;;;;;;;5046090;28;20055;-68
2021/11/06 03:17:05;;;;;;;37.30;13.73;;;;;;;;;;5030479;28;20892;-68
2021/11/06 03:19:32;;;;;;;40.78;13.65;;;;;;;;;;5050124;28;20055;-68
2021/11/06 03:21:58;;;;;;;32.15;13.70;;;;;;;;;;5044045;28;20083;-68
2021/11/06 03:24:25;;;;;;;36.42;12.90;;;;;;;;;;5050366;28;20052;-68
2021/11/06 03:26:51;;;;;;;37.97;14.25;;;;;;;;;;5043534;28;20063;-68
2021/11/06 03:29:17;;;;;;;34.03;13.05;;;;;;;;;;5044602;28;20063;-67
2021/11/06 03:31:44;;;;;;;34.75;12.68;;;;;;;;;;5049819;28;20045;-68
2021/11/06 03:34:10;;;;;;;35.50;13.75;;;;;;;;;;5043007;28;20049;-68
2021/11/06 03:36:36;;;;;;;38.30;13.05;;;;;;;;;;5049528;28;20092;-68
2021/11/06 03:39:03;;;;;;;36.50;12.23;;;;;;;;;;5043648;28;20045;-68
2021/11/06 03:41:29;;;;;;;37.10;13.82;;;;;;;;;;5044920;28;20099;-68
2021/11/06 03:43:56;;;;;;;40.13;13.30;;;;;;;;;;5039514;28;20068;-68
2021/11/06 03:46:23;;;;;;;31.85;13.00;;;;;;;;;;5049863;28;20037;-68
2021/11/06 03:48:49;;;;;;;38.20;13.38;;;;;;;;;;5049030;28;20056;-68
2021/11/06 03:51:15;;;;;;;42.13;13.68;;;;;;;;;;5042055;28;20041;-68
2021/11/06 03:53:42;;;;;;;29.40;12.65;;;;;;;;;;5046041;28;20064;-68
2021/11/06 03:56:08;;;;;;;39.05;14.70;;;;;;;;;;5038248;28;20124;-67
2021/11/06 03:58:34;;;;;;;33.95;13.07;;;;;;;;;;5049014;28;20041;-68
2021/11/06 04:01:02;;;;;;;40.20;16.52;;;;;;;;;;5043687;28;20445;-68
2021/11/06 04:03:28;;;;;;;34.92;15.27;;;;;;;;;;5050095;28;20049;-68
2021/11/06 04:05:55;;;;;;;40.70;16.13;;;;;;;;;;5049339;28;20053;-68
2021/11/06 04:08:21;;;;;;;37.22;14.85;;;;;;;;;;5039374;28;20061;-67
2021/11/06 04:10:47;;;;;;;33.45;14.75;;;;;;;;;;5044975;28;20086;-67
2021/11/06 04:13:14;;;;;;;33.10;14.73;;;;;;;;;;5043561;28;20049;-68
2021/11/06 04:15:40;;;;;;;32.60;13.02;;;;;;;;;;5049880;28;20049;-67
2021/11/06 04:18:07;;;;;;;31.08;13.88;;;;;;;;;;5043408;28;20139;-67
2021/11/06 04:20:34;;;;;;;34.28;14.88;;;;;;;;;;5049603;28;20053;-67
2021/11/06 04:23:00;;;;;;;36.38;14.90;;;;;;;;;;5043016;28;20056;-68
2021/11/06 04:25:27;;;;;;;38.50;14.35;;;;;;;;;;5043824;28;20053;-68
2021/11/06 04:27:53;;;;;;;34.90;13.82;;;;;;;;;;5049660;28;20049;-68
2021/11/06 04:30:19;;;;;;;33.22;14.50;;;;;;;;;;5042853;28;20072;-68
2021/11/06 04:32:46;;;;;;;36.90;13.98;;;;;;;;;;5050252;28;20059;-68
2021/11/06 04:35:12;;;;;;;30.65;13.70;;;;;;;;;;5042831;28;20049;-68
2021/11/06 04:37:38;;;;;;;32.85;14.07;;;;;;;;;;5048611;28;20053;-68
2021/11/06 04:40:06;;;;;;;34.85;15.20;;;;;;;;;;5053858;28;20402;-68
2021/11/06 04:42:33;;;;;;;31.30;14.55;;;;;;;;;;5048233;28;20048;-67
2021/11/06 04:45:00;;;;;;;30.25;14.45;;;;;;;;;;5053959;28;20061;-67
2021/11/06 04:47:26;;;;;;;30.50;13.82;;;;;;;;;;5047312;28;20056;-67
2021/11/06 04:49:54;;;;;;;35.38;15.68;;;;;;;;;;5045401;28;20095;-67
2021/11/06 04:52:21;;;;;;;43.95;14.93;;;;;;;;;;5046729;28;20064;-67
2021/11/06 04:54:47;;;;;;;36.28;14.63;;;;;;;;;;5052944;28;20049;-67
2021/11/06 04:57:13;;;;;;;33.67;15.43;;;;;;;;;;5051095;28;20044;-67
2021/11/06 04:59:40;;;;;;;27.85;13.50;;;;;;;;;;5050750;28;20048;-68
2021/11/06 05:02:06;;;;;;;32.25;14.40;;;;;;;;;;5052326;28;20044;-68
2021/11/06 05:04:33;;;;;;;34.42;14.45;;;;;;;;;;5047911;28;20064;-68
2021/11/06 05:06:59;;;;;;;32.50;13.75;;;;;;;;;;5053903;28;20052;-68
2021/11/06 05:09:26;;;;;;;32.00;15.30;;;;;;;;;;5046973;28;20060;-68
2021/11/06 05:11:53;;;;;;;30.50;14.52;;;;;;;;;;5048984;28;20063;-67
2021/11/06 05:14:19;;;;;;;28.65;14.55;;;;;;;;;;5041988;28;20045;-67
2021/11/06 05:16:48;;;;;;;30.88;15.15;;;;;;;;;;5052024;28;20055;-67
2021/11/06 05:19:14;;;;;;;35.28;15.25;;;;;;;;;;5052636;28;20045;-67
2021/11/06 05:21:41;;;;;;;37.92;15.77;;;;;;;;;;5046215;28;20052;-68
2021/11/06 05:24:08;;;;;;;36.90;16.67;;;;;;;;;;5052571;28;20063;-68
2021/11/06 05:26:35;;;;;;;33.00;15.32;;;;;;;;;;5042026;28;20060;-67
2021/11/06 05:29:04;;;;;;;34.28;15.27;;;;;;;;;;5047957;28;20056;-68
2021/11/06 05:31:31;;;;;;;31.15;14.75;;;;;;;;;;5047485;28;20056;-68
2021/11/06 05:33:58;;;;;;;28.13;15.30;;;;;;;;;;5051853;28;20055;-68
2021/11/06 05:36:24;;;;;;;31.35;16.50;;;;;;;;;;5053386;28;20041;-67
2021/11/06 05:38:51;;;;;;;32.00;15.95;;;;;;;;;;5045230;28;20049;-68
2021/11/06 05:41:17;;;;;;;30.95;15.07;;;;;;;;;;5045485;28;20041;-67
2021/11/06 05:43:43;;;;;;;37.67;16.90;;;;;;;;;;5045101;28;20044;-67
2021/11/06 05:46:09;;;;;;;39.80;16.17;;;;;;;;;;5052238;28;20051;-67
2021/11/06 05:48:36;;;;;;;31.90;16.73;;;;;;;;;;5045583;28;20053;-67
2021/11/06 05:51:02;;;;;;;32.67;15.77;;;;;;;;;;5052521;28;20053;-67
2021/11/06 05:53:29;;;;;;;35.92;18.75;;;;;;;;;;5048206;28;20087;-67
2021/11/06 05:55:55;;;;;;;35.72;18.80;;;;;;;;;;5040322;28;20049;-67
2021/11/06 05:58:21;;;;;;;37.72;20.13;;;;;;;;;;5051716;28;20426;-67
2021/11/06 06:00:48;;;;;;;37.38;20.95;;;;;;;;;;5046281;28;20052;-67
2021/11/06 06:03:14;;;;;;;31.33;18.08;;;;;;;;;;5052755;28;20486;-67
2021/11/06 06:05:41;;;;;;;40.42;20.60;;;;;;;;;;5045407;28;20048;-68
2021/11/06 06:08:07;;;;;;;36.45;18.85;;;;;;;;;;5048002;28;20386;-68
2021/11/06 06:10:33;;;;;;;34.60;18.88;;;;;;;;;;5047364;28;20057;-68
2021/11/06 06:13:00;;;;;;;33.67;17.48;;;;;;;;;;5045875;28;20370;-68
2021/11/06 06:15:26;;;;;;;32.00;16.77;;;;;;;;;;5052620;28;20048;-68
2021/11/06 06:17:52;;;;;;;33.13;17.58;;;;;;;;;;5045339;28;20045;-67
2021/11/06 06:20:19;;;;;;;32.00;16.85;;;;;;;;;;5049707;28;20045;-67
2021/11/06 06:22:45;;;;;;;33.90;17.17;;;;;;;;;;5038973;28;20123;-67
2021/11/06 06:25:12;;;;;;;29.70;15.63;;;;;;;;;;5050956;28;20056;-67
2021/11/06 06:27:39;;;;;;;30.55;16.33;;;;;;;;;;5051320;28;20045;-67
2021/11/06 06:30:07;;;;;;;34.35;18.38;;;;;;;;;;5045780;28;20059;-68
2021/11/06 06:32:33;;;;;;;36.13;19.83;;;;;;;;;;5051049;28;20049;-68
2021/11/06 06:35:00;;;;;;;34.92;18.75;;;;;;;;;;5040828;28;20514;-67
2021/11/06 06:37:26;;;;;;;31.50;17.25;;;;;;;;;;5046788;28;20053;-67
2021/11/06 06:39:52;;;;;;;37.05;19.55;;;;;;;;;;5044168;28;20480;-68
2021/11/06 06:42:20;;;;;;;35.80;19.13;;;;;;;;;;5051931;28;20055;-68
2021/11/06 06:44:46;;;;;;;37.60;19.58;;;;;;;;;;5051707;28;20128;-68
2021/11/06 06:47:13;;;;;;;38.35;19.38;;;;;;;;;;5045467;28;20219;-67
2021/11/06 06:49:39;;;;;;;34.42;18.20;;;;;;;;;;5043259;28;20045;-68
2021/11/06 06:52:06;;;;;;;30.48;17.13;;;;;;;;;;5043545;28;20060;-68
2021/11/06 06:54:33;;;;;;;32.10;16.95;;;;;;;;;;5050776;28;20051;-68
2021/11/06 06:56:59;;;;;;;32.00;16.35;;;;;;;;;;5044336;28;20052;-68
2021/11/06 06:59:26;;;;;;;30.83;17.25;;;;;;;;;;5051428;28;20405;-68
2021/11/06 07:01:55;;;;;;;29.90;16.92;;;;;;;;;;5040223;28;20383;-68
2021/11/06 07:04:21;;;;;;;29.17;17.02;;;;;;;;;;5045787;28;20049;-68
2021/11/06 07:06:51;;;;;;;32.70;18.38;;;;;;;;;;5050138;28;20049;-68
2021/11/06 07:09:17;;;;;;;38.70;19.13;;;;;;;;;;5044510;28;20045;-68
2021/11/06 07:11:43;;;;;;;29.40;18.58;;;;;;;;;;5050722;28;20056;-67
2021/11/06 07:14:09;;;;;;;30.90;18.80;;;;;;;;;;5043147;28;20049;-67
2021/11/06 07:16:36;;;;;;;37.42;18.38;;;;;;;;;;5044789;28;20056;-67
2021/11/06 07:19:03;;;;;;;35.83;18.95;;;;;;;;;;5041395;28;20059;-68
2021/11/06 07:21:29;;;;;;;34.65;18.25;;;;;;;;;;5049847;28;20060;-68
2021/11/06 07:23:56;;;;;;;30.48;16.95;;;;;;;;;;5049584;28;20045;-68
2021/11/06 07:26:22;;;;;;;27.83;17.17;;;;;;;;;;5044303;28;20040;-68
2021/11/06 07:28:48;;;;;;;27.52;17.77;;;;;;;;;;5047071;28;20060;-68
2021/11/06 07:31:16;;;;;;;29.60;17.95;;;;;;;;;;5039495;28;20414;-68
2021/11/06 07:33:42;;;;;;;37.70;19.38;;;;;;;;;;5049496;28;20102;-67
2021/11/06 07:36:10;;;;;;;31.95;18.65;;;;;;;;;;5043949;28;20045;-68
2021/11/06 07:38:36;;;;;;;33.45;18.10;;;;;;;;;;5049778;28;20049;-67
2021/11/06 07:41:03;;;;;;;29.40;15.60;;;;;;;;;;5051176;28;20497;-67
2021/11/06 07:43:29;;;;;;;33.47;20.08;;;;;;;;;;5040083;28;20049;-68
2021/11/06 07:45:56;;;;;;;32.58;16.80;;;;;;;;;;5044821;28;20470;-67
2021/11/06 07:48:22;;;;;;;29.75;16.35;;;;;;;;;;5043323;28;20048;-68
2021/11/06 07:50:48;;;;;;;30.45;16.48;;;;;;;;;;5049366;28;20048;-68
2021/11/06 07:53:14;;;;;;;31.38;15.93;;;;;;;;;;5043603;28;20534;-67
2021/11/06 07:55:41;;;;;;;25.15;14.30;;;;;;;;;;5048609;28;20049;-68
2021/11/06 07:58:09;;;;;;;26.55;15.40;;;;;;;;;;5041431;28;20055;-68
2021/11/06 08:00:36;;;;;;;27.20;15.57;;;;;;;;;;5041794;28;20070;-68
2021/11/06 08:03:03;;;;;;;27.52;16.05;;;;;;;;;;5049673;28;20292;-68
2021/11/06 08:05:29;;;;;;;25.90;14.63;;;;;;;;;;5042503;28;20064;-68
2021/11/06 08:07:56;;;;;;;29.85;15.07;;;;;;;;;;5052577;28;20175;-68
2021/11/06 08:10:22;;;;;;;25.95;15.10;;;;;;;;;;5042527;28;20148;-68
2021/11/06 08:12:48;;;;;;;25.40;15.25;;;;;;;;;;5051425;28;20048;-68
2021/11/06 08:15:15;;;;;;;27.63;14.88;;;;;;;;;;5053010;28;20045;-68
2021/11/06 08:17:42;;;;;;;32.85;15.43;;;;;;;;;;5045398;28;20072;-68
2021/11/06 08:20:08;;;;;;;27.52;15.52;;;;;;;;;;5052973;28;20045;-68
2021/11/06 08:22:36;;;;;;;29.83;15.90;;;;;;;;;;5042168;28;20044;-68
2021/11/06 08:25:03;;;;;;;24.52;15.63;;;;;;;;;;5048959;28;20512;-68
2021/11/06 08:27:29;;;;;;;32.20;14.65;;;;;;;;;;5047598;28;20490;-68
2021/11/06 08:29:56;;;;;;;29.33;15.27;;;;;;;;;;5053032;28;20072;-68
2021/11/06 08:32:22;;;;;;;26.38;15.02;;;;;;;;;;5053519;28;20509;-68
2021/11/06 08:34:48;;;;;;;28.60;16.15;;;;;;;;;;5045892;28;20470;-68
2021/11/06 08:37:15;;;;;;;32.20;16.63;;;;;;;;;;5046531;28;20063;-68
2021/11/06 08:39:41;;;;;;;26.65;16.05;;;;;;;;;;5044176;28;20486;-68
2021/11/06 08:42:08;;;;;;;25.27;15.05;;;;;;;;;;5053304;28;20045;-68
2021/11/06 08:44:34;;;;;;;29.52;16.15;;;;;;;;;;5046809;28;20403;-68
2021/11/06 08:47:01;;;;;;;27.00;15.63;;;;;;;;;;5053196;28;20052;-68
2021/11/06 08:49:27;;;;;;;25.70;14.18;;;;;;;;;;5047909;28;20045;-68
2021/11/06 08:51:56;;;;;;;;;;;;;;;;;;5043553;28;20041;-68
2021/11/06 08:54:23;;;;;;;30.20;15.23;;;;;;;;;;5051773;28;19927;-68
2021/11/06 08:56:49;;;;;;;27.00;14.73;;;;;;;;;;5046106;28;20050;-68
2021/11/06 08:59:17;;;;;;;30.38;14.13;;;;;;;;;;5052815;28;20128;-68
2021/11/06 09:01:45;;;;;;;22.40;13.75;;;;;;;;;;5045963;28;20053;-67
2021/11/06 09:04:12;;;;;;;22.45;13.05;;;;;;;;;;5046093;28;20049;-68
2021/11/06 09:06:39;;;;;;;27.05;14.27;;;;;;;;;;5042948;28;20045;-68
2021/11/06 09:09:08;;;;;;;21.65;13.20;;;;;;;;;;5052050;28;20731;-68
2021/11/06 09:11:34;;;;;;;;;;;;;;;;;;5052496;28;20828;-66
2021/11/06 09:14:00;;;;;;;22.42;12.68;;;;;;;;;;5044854;28;19925;-67
2021/11/06 09:16:26;;;;;;;21.35;12.45;;;;;;;;;;5048261;28;20049;-68
2021/11/06 09:18:53;;;;;;;22.85;13.10;;;;;;;;;;5039674;28;20768;-67
2021/11/06 09:21:21;;;;;;;22.55;14.07;;;;;;;;;;5051518;28;20498;-67
2021/11/06 09:23:50;;;;;;;23.60;12.68;;;;;;;;;;5045817;28;20056;-66
2021/11/06 09:26:17;;;;;;;22.20;13.18;;;;;;;;;;5051369;28;20045;-66
2021/11/06 09:28:43;;;;;;;25.90;14.73;;;;;;;;;;5051723;28;20501;-67
2021/11/06 09:31:10;;;;;;;28.60;14.45;;;;;;;;;;5040081;28;20064;-67
2021/11/06 09:33:37;;;;;;;26.02;13.45;;;;;;;;;;5046069;28;20489;-66
2021/11/06 09:36:04;;;;;;;24.13;12.93;;;;;;;;;;5045465;28;20068;-66
2021/11/06 09:38:30;;;;;;;25.88;13.05;;;;;;;;;;5051797;28;20075;-67
2021/11/06 09:41:05;;;;;;;22.15;12.95;;;;;;;;;;5044060;28;20051;-67
2021/11/06 09:43:31;;;;;;;24.13;12.55;;;;;;;;;;5049342;28;20049;-67
2021/11/06 09:45:59;;;;;;;26.85;13.35;;;;;;;;;;5045379;28;20817;-67
2021/11/06 09:48:26;;;;;;;24.03;13.00;;;;;;;;;;5045038;28;20052;-68
2021/11/06 09:50:56;;;;;;;21.85;11.93;;;;;;;;;;5051320;28;20413;-68
2021/11/06 09:53:33;;;;;;;25.77;13.82;;;;;;;;;;5044374;28;20045;-68
2021/11/06 09:55:59;;;;;;;21.63;12.63;;;;;;;;;;5051427;28;20063;-68
2021/11/06 09:58:25;;;;;;;21.67;11.90;;;;;;;;;;5040672;28;20059;-67
2021/11/06 10:00:52;;;;;;;22.33;11.98;;;;;;;;;;5046410;28;20482;-68
2021/11/06 10:03:18;;;;;;;19.98;10.93;;;;;;;;;;5046961;28;20222;-68
2021/11/06 10:05:50;;;;;;;26.50;11.48;;;;;;;;;;5049477;28;20063;-67
2021/11/06 10:08:22;;;;;;;23.88;12.43;;;;;;;;;;5051226;28;20132;-68
2021/11/06 10:10:50;;;;;;;29.98;11.63;;;;;;;;;;5042277;28;20045;-68
2021/11/06 10:13:17;;;;;;;20.73;10.23;;;;;;;;;;5044449;28;20077;-68
2021/11/06 10:15:45;;;;;;;17.55;10.00;;;;;;;;;;5044528;28;20041;-67
2021/11/06 10:18:12;;;;;;;18.00;9.48;;;;;;;;;;5050545;28;20051;-67
2021/11/06 10:20:40;;;;;;;18.77;9.25;;;;;;;;;;5043606;28;20055;-68
2021/11/06 10:23:07;;;;;;;19.00;9.93;;;;;;;;;;5050660;28;20053;-67
2021/11/06 10:25:37;;;;;;;20.23;10.55;;;;;;;;;;5045817;28;20198;-67
2021/11/06 10:28:06;;;;;;;19.70;9.90;;;;;;;;;;5038508;28;20053;-68
2021/11/06 10:30:37;;;;;;;20.35;10.52;;;;;;;;;;5050192;28;20057;-68
2021/11/06 10:33:05;;;;;;;15.98;10.13;;;;;;;;;;5043522;28;20056;-68
2021/11/06 10:35:33;;;;;;;20.83;10.15;;;;;;;;;;5050825;28;20405;-67
2021/11/06 10:38:00;;;;;;;20.27;9.80;;;;;;;;;;5043911;28;20476;-68
2021/11/06 10:40:30;;;;;;;16.65;9.20;;;;;;;;;;5043034;28;20041;-68
2021/11/06 10:42:58;;;;;;;18.20;10.30;;;;;;;;;;5047231;28;20083;-68
2021/11/06 10:45:26;;;;;;;17.05;9.30;;;;;;;;;;5048763;28;20056;-68
2021/11/06 10:48:03;;;;;;;13.68;9.25;;;;;;;;;;5049980;28;20606;-68
2021/11/06 10:50:44;;;;;;;18.17;9.13;;;;;;;;;;5043976;28;20493;-67
2021/11/06 10:53:11;;;;;;;20.02;10.48;;;;;;;;;;5046143;28;20773;-68
2021/11/06 10:55:39;;;;;;;14.15;8.48;;;;;;;;;;5039132;28;20049;-68
2021/11/06 10:58:23;;;;;;;14.03;7.53;;;;;;;;;;5050141;28;20053;-68
2021/11/06 11:00:59;;;;;;;14.63;9.43;;;;;;;;;;5042820;28;20270;-67
2021/11/06 11:03:29;;;;;;;16.52;8.48;;;;;;;;;;5049829;28;20128;-68
2021/11/06 11:05:56;;;;;;;14.57;8.77;;;;;;;;;;5038346;28;20065;-68
2021/11/06 11:08:22;;;;;;;19.50;8.90;;;;;;;;;;5045089;28;20066;-67
2021/11/06 11:10:49;;;;;;;13.60;8.30;;;;;;;;;;5049354;28;20512;-68
2021/11/06 11:13:22;;;;;;;13.77;8.27;;;;;;;;;;5043053;28;20509;-69
2021/11/06 11:15:50;;;;;;;13.93;7.85;;;;;;;;;;5049421;28;20048;-68
2021/11/06 11:18:29;;;;;;;11.90;8.00;;;;;;;;;;5041958;28;20075;-68
2021/11/06 11:20:55;;;;;;;;;;;;;;;;;;5043996;28;20049;-68
2021/11/06 11:23:22;;;;;;;16.77;8.57;;;;;;;;;;5039983;28;19925;-67
2021/11/06 11:25:48;;;;;;;14.43;7.50;;;;;;;;;;5049372;28;20055;-68
2021/11/06 11:28:15;;;;;;;14.48;8.55;;;;;;;;;;5043736;28;20421;-68
2021/11/06 11:30:42;;;;;;;14.73;7.50;;;;;;;;;;5048955;28;20056;-68
2021/11/06 11:33:26;;;;;;;10.45;7.18;;;;;;;;;;5045543;28;20087;-68
2021/11/06 11:35:53;;;;;;;12.80;7.05;;;;;;;;;;5037859;28;20053;-68
2021/11/06 11:38:20;;;;;;;16.48;7.97;;;;;;;;;;5049250;28;20045;-68
2021/11/06 11:41:13;;;;;;;14.10;7.60;;;;;;;;;;5042873;28;20049;-68
2021/11/06 11:43:58;;;;;;;13.65;7.28;;;;;;;;;;5053255;28;20496;-68
2021/11/06 11:46:38;;;;;;;14.85;7.88;;;;;;;;;;5045932;28;20045;-68
2021/11/06 11:49:05;;;;;;;10.57;6.85;;;;;;;;;;5048088;28;20057;-68
2021/11/06 11:51:32;;;;;;;15.50;8.55;;;;;;;;;;5047239;28;20053;-67
2021/11/06 11:54:03;;;;;;;11.32;6.90;;;;;;;;;;5053540;28;20051;-67
2021/11/06 11:56:29;;;;;;;11.88;7.20;;;;;;;;;;5051627;28;20041;-68
2021/11/06 11:58:57;;;;;;;13.23;7.65;;;;;;;;;;5049085;28;20383;-68
2021/11/06 12:01:24;;;;;;;17.93;7.03;;;;;;;;;;5048695;28;20051;-68
2021/11/06 12:03:51;;;;;;;11.52;7.60;;;;;;;;;;5041893;28;20828;-68
2021/11/06 12:06:25;;;;;;;11.82;6.70;;;;;;;;;;5053731;28;20052;-67
2021/11/06 12:08:58;;;;;;;12.05;6.22;;;;;;;;;;5046315;28;20057;-68
2021/11/06 12:11:26;;;;;;;10.52;7.03;;;;;;;;;;5052065;28;20053;-68
2021/11/06 12:13:56;;;;;;;13.63;7.38;;;;;;;;;;5045922;28;20068;-68
2021/11/06 12:16:42;;;;;;;12.68;7.15;;;;;;;;;;5045648;28;20049;-68
2021/11/06 12:19:09;;;;;;;14.73;7.65;;;;;;;;;;5051230;28;20049;-68
2021/11/06 12:21:37;;;;;;;14.23;6.90;;;;;;;;;;5048302;28;20052;-68
2021/11/06 12:24:03;;;;;;;12.32;6.97;;;;;;;;;;5053228;28;20045;-68
2021/11/06 12:26:31;;;;;;;15.90;6.95;;;;;;;;;;5046694;28;20045;-68
2021/11/06 12:29:03;;;;;;;13.17;6.80;;;;;;;;;;5048028;28;20053;-68
2021/11/06 12:31:31;;;;;;;13.75;6.20;;;;;;;;;;5042341;28;20052;-67
2021/11/06 12:33:58;;;;;;;12.68;6.70;;;;;;;;;;5053028;28;20052;-68
2021/11/06 12:36:26;;;;;;;14.30;7.00;;;;;;;;;;5045866;28;20049;-69
2021/11/06 12:38:53;;;;;;;9.35;6.47;;;;;;;;;;5052200;28;20041;-68
2021/11/06 12:41:29;;;;;;;13.85;7.45;;;;;;;;;;5052690;28;20051;-68
2021/11/06 12:43:56;;;;;;;10.80;7.05;;;;;;;;;;5040541;28;20484;-68
2021/11/06 12:46:27;;;;;;;10.32;7.07;;;;;;;;;;5052205;28;20045;-69
2021/11/06 12:48:56;;;;;;;15.38;7.65;;;;;;;;;;5045308;28;20055;-67
2021/11/06 12:51:26;;;;;;;11.65;7.15;;;;;;;;;;5052961;28;20056;-67
2021/11/06 12:53:56;;;;;;;10.30;6.78;;;;;;;;;;5044037;28;20532;-66
2021/11/06 12:56:46;;;;;;;14.15;8.18;;;;;;;;;;5046184;28;20503;-66
2021/11/06 12:59:14;;;;;;;16.08;7.47;;;;;;;;;;5044169;28;20091;-66
2021/11/06 13:01:42;;;;;;;12.27;7.55;;;;;;;;;;5051982;28;20386;-66
2021/11/06 13:04:13;;;;;;;10.83;7.23;;;;;;;;;;5051923;28;20127;-66
2021/11/06 13:06:39;;;;;;;14.00;7.70;;;;;;;;;;5045292;28;20627;-67
2021/11/06 13:09:15;;;;;;;16.75;7.63;;;;;;;;;;5048356;28;20053;-66
2021/11/06 13:11:47;;;;;;;15.50;7.28;;;;;;;;;;5040020;28;20071;-67
2021/11/06 13:14:33;;;;;;;13.40;7.50;;;;;;;;;;5052085;28;20056;-67
2021/11/06 13:17:00;;;;;;;13.35;7.95;;;;;;;;;;5045352;28;20049;-67
2021/11/06 13:19:45;;;;;;;13.60;7.85;;;;;;;;;;5052074;28;20071;-67
2021/11/06 13:22:12;;;;;;;13.85;8.32;;;;;;;;;;5042423;28;20045;-66
2021/11/06 13:24:54;;;;;;;14.75;8.10;;;;;;;;;;5044536;28;20051;-66
2021/11/06 13:27:53;;;;;;;16.27;7.78;;;;;;;;;;5045608;28;20053;-67
2021/11/06 13:30:28;;;;;;;16.02;8.27;;;;;;;;;;5029103;28;20482;-66
2021/11/06 13:32:58;;;;;;;14.40;8.25;;;;;;;;;;5045099;28;20399;-66
2021/11/06 13:35:27;;;;;;;13.60;8.43;;;;;;;;;;5051219;28;20045;-66
2021/11/06 13:38:12;;;;;;;14.48;8.27;;;;;;;;;;5042371;28;20052;-66
2021/11/06 13:40:46;;;;;;;15.15;8.15;;;;;;;;;;5043946;28;20397;-67
2021/11/06 13:43:14;;;;;;;15.57;9.52;;;;;;;;;;5051492;28;20052;-67
2021/11/06 13:45:56;;;;;;;16.77;8.43;;;;;;;;;;5044849;28;20052;-67
2021/11/06 13:48:22;;;;;;;13.05;8.30;;;;;;;;;;5050969;28;20059;-67
2021/11/06 13:50:49;;;;;;;18.60;8.23;;;;;;;;;;5040598;28;20072;-67
2021/11/06 13:53:23;;;;;;;15.68;8.80;;;;;;;;;;5046230;28;20049;-66
2021/11/06 13:55:56;;;;;;;16.90;8.13;;;;;;;;;;5044578;28;20063;-67
2021/11/06 13:58:26;;;;;;;16.08;9.55;;;;;;;;;;5051568;28;20064;-67
2021/11/06 14:00:53;;;;;;;14.63;8.38;;;;;;;;;;5051228;28;20048;-67
2021/11/06 14:03:20;;;;;;;13.32;8.70;;;;;;;;;;5040248;28;20041;-67
2021/11/06 14:05:48;;;;;;;14.98;8.48;;;;;;;;;;5044895;28;20045;-67
2021/11/06 14:08:15;;;;;;;14.93;8.07;;;;;;;;;;5042823;28;20060;-67
2021/11/06 14:10:42;;;;;;;13.95;7.72;;;;;;;;;;5050734;28;20053;-67
2021/11/06 14:13:10;;;;;;;12.20;7.85;;;;;;;;;;5043707;28;20130;-66
2021/11/06 14:15:51;;;;;;;12.80;7.18;;;;;;;;;;5050619;28;20409;-67
2021/11/06 14:18:27;;;;;;;14.25;7.45;;;;;;;;;;5039205;28;20156;-67
2021/11/06 14:21:04;;;;;;;13.90;8.10;;;;;;;;;;5048387;28;20049;-67
2021/11/06 14:23:33;;;;;;;16.10;7.88;;;;;;;;;;5051360;28;20057;-67
2021/11/06 14:26:18;;;;;;;14.75;7.78;;;;;;;;;;5044105;28;20052;-67
2021/11/06 14:28:46;;;;;;;15.05;7.85;;;;;;;;;;5050597;28;20059;-66